Time;durP1;ratioP1;P1;durP2;ratioP2;P2;SDS_P1;SDS_P2;PMS_P1;PMS_P2;Temp;Humidity;BMP_temperature;BMP_pressure;BME280_temperature;BME280_humidity;BME280_pressure;Samples;Min_cycle;Max_cycle;Signal;HPM_P1;HPM_P2
2023/08/06 00:00:45;;;;;;;4.57;2.08;;;;;;;;;;5840847;28;20477;-86
2023/08/06 00:03:36;;;;;;;2.65;2.05;;;;;;;;;;5806546;28;20129;-84
2023/08/06 00:06:27;;;;;;;4.13;2.63;;;;;;;;;;5818196;28;20043;-84
2023/08/06 00:09:18;;;;;;;3.42;2.42;;;;;;;;;;5819612;28;20049;-85
2023/08/06 00:12:09;;;;;;;3.28;2.10;;;;;;;;;;5822880;28;20511;-84
2023/08/06 00:14:59;;;;;;;2.20;1.88;;;;;;;;;;5823272;28;20038;-84
2023/08/06 00:17:50;;;;;;;2.20;1.67;;;;;;;;;;5822853;28;20042;-83
2023/08/06 00:20:41;;;;;;;1.45;1.35;;;;;;;;;;5844586;28;20362;-83
2023/08/06 00:23:32;;;;;;;1.63;1.30;;;;;;;;;;5845652;28;20128;-83
2023/08/06 00:26:23;;;;;;;1.77;1.02;;;;;;;;;;5845360;28;20112;-84
2023/08/06 00:29:14;;;;;;;1.13;1.05;;;;;;;;;;5845140;28;20053;-84
2023/08/06 00:32:05;;;;;;;1.25;1.00;;;;;;;;;;5845222;28;20046;-83
2023/08/06 00:34:56;;;;;;;1.58;0.47;;;;;;;;;;5845670;28;20053;-82
2023/08/06 00:37:47;;;;;;;1.85;0.90;;;;;;;;;;5845156;28;20046;-82
2023/08/06 00:40:38;;;;;;;3.80;1.10;;;;;;;;;;5845100;28;20049;-82
2023/08/06 00:43:29;;;;;;;1.17;0.95;;;;;;;;;;5845057;28;20069;-81
2023/08/06 00:46:21;;;;;;;1.52;0.98;;;;;;;;;;5843888;28;20049;-84
2023/08/06 00:49:12;;;;;;;0.50;0.50;;;;;;;;;;5844776;28;20041;-83
2023/08/06 00:52:07;;;;;;;1.48;0.82;;;;;;;;;;5843723;28;20420;-83
2023/08/06 00:54:58;;;;;;;1.77;1.10;;;;;;;;;;5844080;28;20128;-83
2023/08/06 00:57:51;;;;;;;0.98;0.88;;;;;;;;;;5844592;28;20442;-81
2023/08/06 01:00:41;;;;;;;2.17;1.02;;;;;;;;;;5844638;28;20416;-83
2023/08/06 01:03:33;;;;;;;0.50;0.50;;;;;;;;;;5844454;28;20132;-81
2023/08/06 01:07:01;;;;;;;0.70;0.70;;;;;;;;;;5844458;28;20121;-81
2023/08/06 01:10:36;;;;;;;1.30;1.02;;;;;;;;;;5844607;28;20042;-83
2023/08/06 01:13:46;;;;;;;1.25;0.95;;;;;;;;;;5842778;28;20481;-83
2023/08/06 01:16:39;;;;;;;0.77;0.65;;;;;;;;;;5844538;28;20547;-84
2023/08/06 01:19:30;;;;;;;1.42;0.80;;;;;;;;;;5843842;28;20046;-84
2023/08/06 01:22:21;;;;;;;0.85;0.85;;;;;;;;;;5844236;28;20053;-82
2023/08/06 01:25:16;;;;;;;2.22;1.45;;;;;;;;;;5844023;28;20049;-83
2023/08/06 01:28:22;;;;;;;1.38;1.27;;;;;;;;;;5844161;28;20477;-83
2023/08/06 01:31:27;;;;;;;2.47;1.58;;;;;;;;;;5843933;28;20038;-85
2023/08/06 01:34:23;;;;;;;1.25;1.15;;;;;;;;;;5842578;28;20058;-83
2023/08/06 01:37:14;;;;;;;1.48;0.95;;;;;;;;;;5842294;28;20136;-84
2023/08/06 01:40:14;;;;;;;2.60;1.33;;;;;;;;;;5842659;28;20497;-82
2023/08/06 01:43:05;;;;;;;1.23;1.13;;;;;;;;;;5843737;28;20042;-82
2023/08/06 01:45:56;;;;;;;1.55;1.45;;;;;;;;;;5844266;28;20042;-83
2023/08/06 01:48:47;;;;;;;2.00;1.27;;;;;;;;;;5843296;28;20152;-83
2023/08/06 01:51:37;;;;;;;1.15;0.93;;;;;;;;;;5843419;28;20050;-83
2023/08/06 01:54:28;;;;;;;1.17;1.00;;;;;;;;;;5843505;28;20048;-83
2023/08/06 01:57:19;;;;;;;2.42;0.98;;;;;;;;;;5843325;28;20429;-83
2023/08/06 02:00:11;;;;;;;1.25;1.15;;;;;;;;;;5843416;28;20056;-84
2023/08/06 02:03:02;;;;;;;1.40;1.08;;;;;;;;;;5843272;28;20050;-84
2023/08/06 02:05:52;;;;;;;3.38;1.98;;;;;;;;;;5843519;28;20038;-83
2023/08/06 02:08:45;;;;;;;2.35;1.35;;;;;;;;;;5842937;28;20042;-83
2023/08/06 02:11:36;;;;;;;6.82;1.25;;;;;;;;;;5842815;28;20041;-83
2023/08/06 02:14:27;;;;;;;1.30;0.88;;;;;;;;;;5842965;28;20046;-83
2023/08/06 02:17:17;;;;;;;1.00;0.90;;;;;;;;;;5843159;28;20054;-83
2023/08/06 02:20:09;;;;;;;3.40;1.17;;;;;;;;;;5842806;28;20082;-83
2023/08/06 02:22:59;;;;;;;5.60;1.02;;;;;;;;;;5843319;28;20357;-82
2023/08/06 02:26:03;;;;;;;3.75;1.17;;;;;;;;;;5842948;28;20042;-83
2023/08/06 02:28:54;;;;;;;1.38;0.80;;;;;;;;;;5841548;28;20042;-83
2023/08/06 02:31:45;;;;;;;0.93;0.68;;;;;;;;;;5842084;28;20055;-83
2023/08/06 02:34:36;;;;;;;1.85;1.40;;;;;;;;;;5842422;28;20045;-83
2023/08/06 02:37:26;;;;;;;2.13;1.58;;;;;;;;;;5842483;28;20057;-83
2023/08/06 02:40:17;;;;;;;3.25;1.05;;;;;;;;;;5841235;28;20054;-83
2023/08/06 02:43:08;;;;;;;10.90;2.20;;;;;;;;;;5842400;28;20132;-82
2023/08/06 02:46:03;;;;;;;1.10;1.00;;;;;;;;;;5841450;28;20515;-83
2023/08/06 02:48:53;;;;;;;1.15;1.02;;;;;;;;;;5842243;28;20038;-82
2023/08/06 02:51:45;;;;;;;1.17;1.08;;;;;;;;;;5840880;28;20495;-83
2023/08/06 02:54:36;;;;;;;1.45;1.35;;;;;;;;;;5841995;28;20042;-83
2023/08/06 02:57:27;;;;;;;2.10;1.38;;;;;;;;;;5842033;28;20408;-83
2023/08/06 03:00:17;;;;;;;1.52;1.25;;;;;;;;;;5842014;28;20049;-83
2023/08/06 03:03:09;;;;;;;1.80;1.20;;;;;;;;;;5842042;28;20425;-83
2023/08/06 03:06:00;;;;;;;1.20;1.00;;;;;;;;;;5842335;28;20045;-83
2023/08/06 03:08:51;;;;;;;2.72;1.45;;;;;;;;;;5841943;28;20125;-83
2023/08/06 03:11:42;;;;;;;0.80;0.80;;;;;;;;;;5841934;28;20492;-83
2023/08/06 03:14:33;;;;;;;5.45;1.70;;;;;;;;;;5841656;28;20042;-82
2023/08/06 03:17:23;;;;;;;8.15;1.75;;;;;;;;;;5841639;28;20128;-83
2023/08/06 03:20:14;;;;;;;1.15;1.05;;;;;;;;;;5841790;28;20060;-83
2023/08/06 03:23:05;;;;;;;4.90;2.35;;;;;;;;;;5841633;28;20045;-82
2023/08/06 03:25:56;;;;;;;5.75;1.75;;;;;;;;;;5841986;28;20042;-83
2023/08/06 03:28:47;;;;;;;29.13;2.78;;;;;;;;;;5841711;28;20073;-83
2023/08/06 03:31:38;;;;;;;1.70;1.42;;;;;;;;;;5841624;28;20049;-83
2023/08/06 03:34:29;;;;;;;2.53;1.77;;;;;;;;;;5841379;28;20056;-82
2023/08/06 03:37:19;;;;;;;3.55;2.30;;;;;;;;;;5841485;28;20397;-83
2023/08/06 03:40:10;;;;;;;4.65;3.78;;;;;;;;;;5841607;28;20419;-82
2023/08/06 03:43:01;;;;;;;11.73;2.75;;;;;;;;;;5841222;28;20464;-82
2023/08/06 03:45:52;;;;;;;7.80;2.90;;;;;;;;;;5841575;28;20050;-82
2023/08/06 03:48:43;;;;;;;3.67;2.85;;;;;;;;;;5841023;28;20492;-82
2023/08/06 03:51:34;;;;;;;15.55;3.50;;;;;;;;;;5841208;28;20851;-82
2023/08/06 03:54:24;;;;;;;5.35;1.95;;;;;;;;;;5840099;28;20421;-83
2023/08/06 03:57:15;;;;;;;3.33;1.95;;;;;;;;;;5841225;28;20357;-83
2023/08/06 04:00:07;;;;;;;1.75;1.35;;;;;;;;;;5841062;28;20176;-83
2023/08/06 04:02:58;;;;;;;21.77;2.78;;;;;;;;;;5841656;28;20402;-82
2023/08/06 04:05:49;;;;;;;1.80;1.52;;;;;;;;;;5841288;28;20045;-83
2023/08/06 04:08:40;;;;;;;2.20;1.85;;;;;;;;;;5841338;28;20045;-82
2023/08/06 04:11:30;;;;;;;2.67;1.70;;;;;;;;;;5839691;28;20109;-83
2023/08/06 04:14:21;;;;;;;5.55;2.40;;;;;;;;;;5840849;28;20058;-82
2023/08/06 04:17:12;;;;;;;2.30;2.00;;;;;;;;;;5841003;28;20052;-83
2023/08/06 04:20:04;;;;;;;4.68;2.13;;;;;;;;;;5839951;28;20046;-83
2023/08/06 04:22:55;;;;;;;9.75;2.33;;;;;;;;;;5839651;28;20041;-84
2023/08/06 04:25:46;;;;;;;4.28;2.15;;;;;;;;;;5841021;28;20056;-82
2023/08/06 04:28:37;;;;;;;6.47;2.83;;;;;;;;;;5840826;28;20048;-82
2023/08/06 04:31:29;;;;;;;3.13;2.08;;;;;;;;;;5840666;28;20129;-84
2023/08/06 04:34:19;;;;;;;3.38;2.47;;;;;;;;;;5840749;28;20042;-82
2023/08/06 04:37:10;;;;;;;2.45;1.52;;;;;;;;;;5840879;28;20046;-83
2023/08/06 04:40:01;;;;;;;4.03;2.15;;;;;;;;;;5841319;28;20050;-83
2023/08/06 04:42:52;;;;;;;2.60;1.77;;;;;;;;;;5840724;28;20048;-82
2023/08/06 04:45:49;;;;;;;2.58;1.33;;;;;;;;;;5840654;28;20041;-82
2023/08/06 04:48:40;;;;;;;3.92;1.67;;;;;;;;;;5840635;28;20409;-85
2023/08/06 04:51:31;;;;;;;3.72;2.08;;;;;;;;;;5840512;28;20046;-83
2023/08/06 04:54:21;;;;;;;1.88;1.73;;;;;;;;;;5840549;28;20050;-82
2023/08/06 04:57:12;;;;;;;1.30;1.17;;;;;;;;;;5844696;28;20041;-84
2023/08/06 05:00:05;;;;;;;2.95;2.15;;;;;;;;;;5845174;28;20093;-83
2023/08/06 05:02:56;;;;;;;1.83;1.27;;;;;;;;;;5845010;28;20133;-84
2023/08/06 05:05:46;;;;;;;2.03;1.33;;;;;;;;;;5844999;28;20052;-84
2023/08/06 05:08:37;;;;;;;2.45;1.63;;;;;;;;;;5844680;28;20485;-82
2023/08/06 05:11:28;;;;;;;2.95;1.60;;;;;;;;;;5844240;28;20052;-83
2023/08/06 05:14:19;;;;;;;2.22;1.48;;;;;;;;;;5844543;28;20153;-83
2023/08/06 05:17:10;;;;;;;1.35;1.20;;;;;;;;;;5844291;28;20048;-84
2023/08/06 05:20:00;;;;;;;3.05;1.75;;;;;;;;;;5843622;28;20710;-84
2023/08/06 05:22:51;;;;;;;1.67;1.33;;;;;;;;;;5843196;28;20522;-83
2023/08/06 05:25:42;;;;;;;3.90;2.00;;;;;;;;;;5844224;28;20050;-82
2023/08/06 05:28:34;;;;;;;1.77;1.35;;;;;;;;;;5844323;28;20037;-83
2023/08/06 05:31:25;;;;;;;1.63;1.42;;;;;;;;;;5842758;28;20044;-82
2023/08/06 05:34:16;;;;;;;2.25;1.45;;;;;;;;;;5843940;28;20159;-83
2023/08/06 05:37:07;;;;;;;3.28;1.90;;;;;;;;;;5843976;28;20046;-83
2023/08/06 05:39:58;;;;;;;2.17;1.80;;;;;;;;;;5844329;28;20049;-82
2023/08/06 05:42:49;;;;;;;1.90;1.58;;;;;;;;;;5843924;28;20053;-83
2023/08/06 05:45:39;;;;;;;2.00;1.73;;;;;;;;;;5843837;28;20045;-83
2023/08/06 05:48:31;;;;;;;3.00;1.80;;;;;;;;;;5843572;28;20176;-83
2023/08/06 05:51:22;;;;;;;3.10;0.98;;;;;;;;;;5843525;28;20057;-83
2023/08/06 05:54:13;;;;;;;3.05;1.92;;;;;;;;;;5843580;28;20076;-85
2023/08/06 05:57:05;;;;;;;3.90;2.20;;;;;;;;;;5843609;28;20463;-82
2023/08/06 05:59:56;;;;;;;2.92;1.65;;;;;;;;;;5843782;28;20046;-84
2023/08/06 06:02:46;;;;;;;2.10;1.83;;;;;;;;;;5843740;28;20130;-83
2023/08/06 06:05:41;;;;;;;2.50;1.80;;;;;;;;;;5842147;28;20448;-82
2023/08/06 06:08:33;;;;;;;2.67;1.55;;;;;;;;;;5843252;28;20071;-83
2023/08/06 06:11:24;;;;;;;3.08;1.83;;;;;;;;;;5842047;28;20060;-85
2023/08/06 06:14:19;;;;;;;5.68;1.92;;;;;;;;;;5843184;28;20054;-85
2023/08/06 06:17:09;;;;;;;1.65;1.35;;;;;;;;;;5841969;28;20070;-84
2023/08/06 06:20:00;;;;;;;1.90;1.63;;;;;;;;;;5843772;28;20786;-84
2023/08/06 06:22:51;;;;;;;2.95;2.28;;;;;;;;;;5843222;28;20049;-82
2023/08/06 06:25:51;;;;;;;1.52;1.20;;;;;;;;;;5843034;28;20489;-84
2023/08/06 06:28:42;;;;;;;2.20;1.48;;;;;;;;;;5842749;28;20053;-83
2023/08/06 06:31:33;;;;;;;6.65;2.47;;;;;;;;;;5842642;28;20050;-82
2023/08/06 06:34:24;;;;;;;3.28;2.17;;;;;;;;;;5842746;28;20053;-84
2023/08/06 06:37:14;;;;;;;1.83;1.58;;;;;;;;;;5842698;28;20042;-83
2023/08/06 06:40:06;;;;;;;2.97;2.15;;;;;;;;;;5842321;28;20201;-84
2023/08/06 06:42:57;;;;;;;3.05;1.80;;;;;;;;;;5843072;28;20583;-84
2023/08/06 06:45:57;;;;;;;2.55;1.50;;;;;;;;;;5842833;28;20049;-82
2023/08/06 06:48:48;;;;;;;3.47;1.60;;;;;;;;;;5841129;28;20046;-84
2023/08/06 06:51:38;;;;;;;2.90;2.00;;;;;;;;;;5842262;28;20046;-83
2023/08/06 06:54:30;;;;;;;6.88;2.83;;;;;;;;;;5841148;28;20472;-83
2023/08/06 06:57:21;;;;;;;2.45;1.75;;;;;;;;;;5842247;28;20038;-82
2023/08/06 07:00:12;;;;;;;1.98;1.65;;;;;;;;;;5842223;28;20089;-83
2023/08/06 07:03:03;;;;;;;2.08;1.10;;;;;;;;;;5842205;28;20048;-84
2023/08/06 07:06:00;;;;;;;2.22;1.73;;;;;;;;;;5841308;28;20497;-83
2023/08/06 07:08:51;;;;;;;2.63;1.73;;;;;;;;;;5842421;28;20459;-83
2023/08/06 07:11:43;;;;;;;1.20;1.10;;;;;;;;;;5842036;28;20085;-84
2023/08/06 07:14:34;;;;;;;1.80;1.40;;;;;;;;;;5842067;28;20042;-83
2023/08/06 07:17:25;;;;;;;1.83;1.40;;;;;;;;;;5841563;28;20038;-85
2023/08/06 07:20:16;;;;;;;2.13;1.80;;;;;;;;;;5841915;28;20068;-86
2023/08/06 07:23:07;;;;;;;3.08;1.75;;;;;;;;;;5841715;28;20056;-84
2023/08/06 07:25:58;;;;;;;2.03;1.38;;;;;;;;;;5842127;28;20045;-84
2023/08/06 07:28:49;;;;;;;3.13;1.63;;;;;;;;;;5841776;28;20046;-82
2023/08/06 07:31:40;;;;;;;1.48;1.30;;;;;;;;;;5841720;28;20058;-85
2023/08/06 07:34:31;;;;;;;1.48;1.30;;;;;;;;;;5841907;28;20128;-85
2023/08/06 07:37:22;;;;;;;2.88;1.42;;;;;;;;;;5841506;28;20176;-85
2023/08/06 07:40:13;;;;;;;4.65;1.85;;;;;;;;;;5841370;28;20077;-83
2023/08/06 07:43:05;;;;;;;4.68;1.90;;;;;;;;;;5841249;28;20046;-83
2023/08/06 07:46:00;;;;;;;4.10;2.83;;;;;;;;;;5841896;28;20456;-85
2023/08/06 07:48:51;;;;;;;3.25;1.60;;;;;;;;;;5840102;28;20053;-84
2023/08/06 07:51:42;;;;;;;6.00;1.75;;;;;;;;;;5840976;28;20481;-83
2023/08/06 07:54:32;;;;;;;4.97;1.90;;;;;;;;;;5841198;28;20117;-85
2023/08/06 07:57:23;;;;;;;2.70;1.73;;;;;;;;;;5839799;28;20129;-84
2023/08/06 08:00:14;;;;;;;2.95;1.30;;;;;;;;;;5841427;28;20134;-84
2023/08/06 08:03:05;;;;;;;0.38;0.38;;;;;;;;;;5841282;28;20050;-84
2023/08/06 08:05:57;;;;;;;1.75;0.43;;;;;;;;;;5841814;28;20133;-84
2023/08/06 08:08:48;;;;;;;0.20;0.20;;;;;;;;;;5839669;28;20044;-85
2023/08/06 08:11:40;;;;;;;0.70;0.57;;;;;;;;;;5839879;28;20045;-85
2023/08/06 08:14:35;;;;;;;3.55;1.00;;;;;;;;;;5841466;28;20068;-85
2023/08/06 08:17:26;;;;;;;1.45;0.68;;;;;;;;;;5841291;28;20132;-85
2023/08/06 08:20:17;;;;;;;2.65;0.43;;;;;;;;;;5841172;28;20057;-86
2023/08/06 08:23:08;;;;;;;1.05;0.60;;;;;;;;;;5823493;28;20133;-84
2023/08/06 08:25:59;;;;;;;0.82;0.60;;;;;;;;;;5839957;28;20048;-84
2023/08/06 08:28:50;;;;;;;6.28;0.55;;;;;;;;;;5839615;28;20060;-86
2023/08/06 08:31:41;;;;;;;6.40;1.90;;;;;;;;;;5843109;28;20065;-84
2023/08/06 08:34:31;;;;;;;2.35;1.45;;;;;;;;;;5876588;28;20466;-85
2023/08/06 08:37:23;;;;;;;8.70;4.40;;;;;;;;;;5843703;28;20058;-84
2023/08/06 08:40:15;;;;;;;1.38;1.13;;;;;;;;;;5843706;28;20064;-84
2023/08/06 08:43:06;;;;;;;0.65;0.38;;;;;;;;;;5843577;28;20046;-84
2023/08/06 08:46:01;;;;;;;1.30;0.73;;;;;;;;;;5845645;28;20472;-85
2023/08/06 08:48:52;;;;;;;1.05;0.57;;;;;;;;;;5820809;28;20485;-84
2023/08/06 08:51:44;;;;;;;1.23;1.00;;;;;;;;;;5820725;28;20135;-84
2023/08/06 08:54:37;;;;;;;5.20;3.10;;;;;;;;;;5822154;28;20043;-84
2023/08/06 08:57:28;;;;;;;1.90;1.02;;;;;;;;;;5821049;28;20042;-85
2023/08/06 09:00:19;;;;;;;0.47;0.30;;;;;;;;;;5822816;28;20078;-85
2023/08/06 09:03:10;;;;;;;0.35;0.30;;;;;;;;;;5820581;28;20428;-85
2023/08/06 09:06:02;;;;;;;0.30;0.30;;;;;;;;;;5822071;28;20046;-88
2023/08/06 09:09:11;;;;;;;1.48;0.40;;;;;;;;;;5820881;28;20568;-84
2023/08/06 09:12:11;;;;;;;0.25;0.25;;;;;;;;;;5820495;28;20072;-87
2023/08/06 09:15:03;;;;;;;0.17;0.17;;;;;;;;;;5851958;28;20042;-85
2023/08/06 09:17:54;;;;;;;0.85;0.82;;;;;;;;;;5859812;28;20048;-84
2023/08/06 09:20:49;;;;;;;4.53;0.98;;;;;;;;;;5843466;28;20420;-85
2023/08/06 09:23:39;;;;;;;0.73;0.43;;;;;;;;;;5844996;28;20574;-85
2023/08/06 09:26:34;;;;;;;0.70;0.57;;;;;;;;;;5844176;28;20464;-85
2023/08/06 09:29:24;;;;;;;0.52;0.47;;;;;;;;;;5843844;28;20042;-85
2023/08/06 09:32:15;;;;;;;0.82;0.57;;;;;;;;;;5826899;28;20080;-84
2023/08/06 09:35:14;;;;;;;0.45;0.45;;;;;;;;;;5844048;28;20511;-85
2023/08/06 09:38:10;;;;;;;2.05;0.75;;;;;;;;;;5842823;28;20136;-85
2023/08/06 09:41:01;;;;;;;0.40;0.40;;;;;;;;;;5842995;28;20100;-85
2023/08/06 09:43:52;;;;;;;0.70;0.40;;;;;;;;;;5843907;28;20042;-86
2023/08/06 09:46:46;;;;;;;1.38;1.27;;;;;;;;;;5852061;28;20053;-85
2023/08/06 09:49:45;;;;;;;0.82;0.50;;;;;;;;;;5840974;28;20564;-84
2023/08/06 09:52:36;;;;;;;0.95;0.55;;;;;;;;;;5826653;28;20046;-85
2023/08/06 09:55:27;;;;;;;1.88;0.93;;;;;;;;;;5842931;28;20409;-85
2023/08/06 09:58:20;;;;;;;0.35;0.20;;;;;;;;;;5843164;28;20492;-85
2023/08/06 10:01:12;;;;;;;0.40;0.40;;;;;;;;;;5826870;28;20149;-84
2023/08/06 10:04:05;;;;;;;0.93;0.30;;;;;;;;;;5842887;28;20145;-85
2023/08/06 10:07:13;;;;;;;0.10;0.10;;;;;;;;;;5828848;28;20052;-85
2023/08/06 10:10:04;;;;;;;0.43;0.43;;;;;;;;;;5843644;28;20100;-87
2023/08/06 10:12:58;;;;;;;0.20;0.20;;;;;;;;;;5826569;28;20521;-85
2023/08/06 10:15:50;;;;;;;0.22;0.22;;;;;;;;;;5841768;28;20050;-84
2023/08/06 10:18:42;;;;;;;0.10;0.10;;;;;;;;;;5841832;28;20065;-84
2023/08/06 10:21:33;;;;;;;0.68;0.20;;;;;;;;;;5825530;28;20048;-85
2023/08/06 10:24:24;;;;;;;0.30;0.25;;;;;;;;;;5841695;28;20046;-84
2023/08/06 10:27:34;;;;;;;0.10;0.05;;;;;;;;;;5841846;28;20137;-85
2023/08/06 10:30:33;;;;;;;0.30;0.30;;;;;;;;;;5842783;28;20128;-84
2023/08/06 10:33:42;;;;;;;0.30;0.30;;;;;;;;;;5825737;28;20060;-85
2023/08/06 10:36:33;;;;;;;0.10;0.10;;;;;;;;;;5841531;28;20042;-84
2023/08/06 10:39:24;;;;;;;0.20;0.20;;;;;;;;;;5841665;28;20627;-84
2023/08/06 10:42:27;;;;;;;0.55;0.35;;;;;;;;;;5841684;28;20515;-84
2023/08/06 10:45:19;;;;;;;0.22;0.22;;;;;;;;;;5825337;28;20057;-84
2023/08/06 10:48:10;;;;;;;0.30;0.20;;;;;;;;;;5841082;28;20505;-85
2023/08/06 10:51:01;;;;;;;0.30;0.30;;;;;;;;;;5841529;28;20054;-86
2023/08/06 10:53:52;;;;;;;0.32;0.32;;;;;;;;;;5840601;28;20108;-85
2023/08/06 10:56:44;;;;;;;0.32;0.32;;;;;;;;;;5841119;28;20168;-85
2023/08/06 10:59:36;;;;;;;0.55;0.52;;;;;;;;;;5817231;28;20121;-85
2023/08/06 11:02:28;;;;;;;0.85;0.32;;;;;;;;;;5841358;28;20048;-85
2023/08/06 11:05:19;;;;;;;0.20;0.20;;;;;;;;;;5842052;28;20061;-85
2023/08/06 11:08:10;;;;;;;0.20;0.20;;;;;;;;;;5840768;28;20512;-87
2023/08/06 11:11:14;;;;;;;0.30;0.30;;;;;;;;;;5841363;28;20156;-86
2023/08/06 11:14:05;;;;;;;0.80;0.20;;;;;;;;;;5840227;28;20048;-85
2023/08/06 11:16:56;;;;;;;2.10;1.23;;;;;;;;;;5824988;28;20049;-86
2023/08/06 11:19:47;;;;;;;0.57;0.40;;;;;;;;;;5824495;28;20096;-85
2023/08/06 11:22:38;;;;;;;0.63;0.47;;;;;;;;;;5817124;28;20049;-85
2023/08/06 11:25:29;;;;;;;0.50;0.50;;;;;;;;;;5840658;28;20038;-85
2023/08/06 11:28:23;;;;;;;0.30;0.30;;;;;;;;;;5840706;28;20049;-85
2023/08/06 11:31:21;;;;;;;2.30;0.55;;;;;;;;;;5840480;28;20460;-85
2023/08/06 11:34:12;;;;;;;0.82;0.50;;;;;;;;;;5840408;28;20065;-85
2023/08/06 11:37:05;;;;;;;0.70;0.22;;;;;;;;;;5841773;28;20462;-85
2023/08/06 11:40:00;;;;;;;1.42;1.08;;;;;;;;;;5840750;28;20537;-84
2023/08/06 11:42:51;;;;;;;1.83;0.77;;;;;;;;;;5841709;28;20555;-85
2023/08/06 11:45:42;;;;;;;0.63;0.30;;;;;;;;;;5840529;28;20042;-84
2023/08/06 11:48:54;;;;;;;1.20;0.30;;;;;;;;;;5841443;28;20046;-83
2023/08/06 11:51:45;;;;;;;1.45;0.60;;;;;;;;;;5840435;28;20046;-84
2023/08/06 11:54:39;;;;;;;0.20;0.20;;;;;;;;;;5840491;28;20042;-84
2023/08/06 11:57:35;;;;;;;0.77;0.45;;;;;;;;;;5840571;28;20127;-84
2023/08/06 12:00:26;;;;;;;0.77;0.17;;;;;;;;;;5841712;28;20049;-84
2023/08/06 12:03:20;;;;;;;0.35;0.20;;;;;;;;;;5840544;28;20416;-84
2023/08/06 12:06:11;;;;;;;0.25;0.25;;;;;;;;;;5846265;28;20125;-83
2023/08/06 12:09:02;;;;;;;0.40;0.35;;;;;;;;;;5845139;28;20080;-85
2023/08/06 12:11:53;;;;;;;0.35;0.35;;;;;;;;;;5829256;28;20042;-86
2023/08/06 12:14:44;;;;;;;0.85;0.43;;;;;;;;;;5846396;28;20045;-85
2023/08/06 12:17:36;;;;;;;0.38;0.38;;;;;;;;;;5847111;28;20050;-85
2023/08/06 12:20:28;;;;;;;0.10;0.10;;;;;;;;;;5829253;28;20042;-86
2023/08/06 12:23:19;;;;;;;1.13;0.60;;;;;;;;;;5828937;28;20046;-85
2023/08/06 12:26:10;;;;;;;1.20;0.65;;;;;;;;;;5846369;28;20173;-85
2023/08/06 12:29:01;;;;;;;2.15;0.73;;;;;;;;;;5847096;28;20074;-84
2023/08/06 12:31:52;;;;;;;0.77;0.70;;;;;;;;;;5846618;28;20125;-85
2023/08/06 12:34:43;;;;;;;0.30;0.30;;;;;;;;;;5845790;28;20050;-84
2023/08/06 12:37:44;;;;;;;0.93;0.50;;;;;;;;;;5843942;28;20412;-85
2023/08/06 12:40:34;;;;;;;0.20;0.20;;;;;;;;;;5827982;28;20491;-85
2023/08/06 12:43:29;;;;;;;1.85;0.40;;;;;;;;;;5845441;28;20049;-84
2023/08/06 12:46:20;;;;;;;5.03;0.57;;;;;;;;;;5843944;28;20052;-85
2023/08/06 12:49:11;;;;;;;0.30;0.30;;;;;;;;;;5843773;28;20050;-84
2023/08/06 12:52:03;;;;;;;1.17;0.63;;;;;;;;;;5845255;28;20052;-87
2023/08/06 12:54:54;;;;;;;2.45;0.77;;;;;;;;;;5844151;28;20050;-84
2023/08/06 12:57:44;;;;;;;0.43;0.28;;;;;;;;;;5843810;28;20052;-85
2023/08/06 13:00:47;;;;;;;2.10;0.70;;;;;;;;;;5843826;28;20053;-85
2023/08/06 13:03:38;;;;;;;0.93;0.60;;;;;;;;;;5843811;28;20160;-85
2023/08/06 13:06:30;;;;;;;1.73;1.00;;;;;;;;;;5844723;28;20144;-84
2023/08/06 13:09:21;;;;;;;2.30;0.63;;;;;;;;;;5843387;28;20046;-85
2023/08/06 13:12:12;;;;;;;1.55;0.70;;;;;;;;;;5843113;28;20135;-83
2023/08/06 13:15:03;;;;;;;0.55;0.38;;;;;;;;;;5844596;28;20483;-85
2023/08/06 13:17:54;;;;;;;0.50;0.40;;;;;;;;;;5843102;28;20050;-85
2023/08/06 13:20:46;;;;;;;0.55;0.40;;;;;;;;;;5843012;28;20076;-86
2023/08/06 13:23:37;;;;;;;3.03;0.80;;;;;;;;;;5844452;28;20046;-85
2023/08/06 13:26:29;;;;;;;1.00;0.45;;;;;;;;;;5844012;28;20485;-84
2023/08/06 13:29:20;;;;;;;0.10;0.10;;;;;;;;;;5827058;28;20060;-83
2023/08/06 13:32:11;;;;;;;0.38;0.35;;;;;;;;;;5844077;28;20449;-84
2023/08/06 13:35:05;;;;;;;0.20;0.20;;;;;;;;;;5827093;28;20043;-86
2023/08/06 13:37:56;;;;;;;1.17;0.57;;;;;;;;;;5844689;28;20049;-83
2023/08/06 13:40:48;;;;;;;0.45;0.45;;;;;;;;;;5842910;28;20050;-84
2023/08/06 13:43:39;;;;;;;0.20;0.10;;;;;;;;;;5842545;28;20034;-83
2023/08/06 13:46:30;;;;;;;0.13;0.10;;;;;;;;;;5826532;28;20420;-84
2023/08/06 13:49:21;;;;;;;0.50;0.50;;;;;;;;;;5844014;28;20065;-83
2023/08/06 13:52:11;;;;;;;1.20;0.52;;;;;;;;;;5826140;28;20183;-84
2023/08/06 13:55:12;;;;;;;0.17;0.17;;;;;;;;;;5842326;28;20070;-85
2023/08/06 13:58:02;;;;;;;0.73;0.30;;;;;;;;;;5843687;28;20049;-85
2023/08/06 14:00:54;;;;;;;2.85;0.93;;;;;;;;;;5842969;28;20066;-84
2023/08/06 14:03:45;;;;;;;0.40;0.30;;;;;;;;;;5826208;28;20561;-83
2023/08/06 14:06:36;;;;;;;0.60;0.35;;;;;;;;;;5842457;28;20088;-83
2023/08/06 14:09:27;;;;;;;0.63;0.45;;;;;;;;;;5842053;28;20046;-82
2023/08/06 14:12:18;;;;;;;0.82;0.65;;;;;;;;;;5825701;28;20046;-84
2023/08/06 14:15:10;;;;;;;1.33;0.73;;;;;;;;;;5825741;28;20042;-85
2023/08/06 14:18:02;;;;;;;1.23;0.40;;;;;;;;;;5842337;28;20057;-85
2023/08/06 14:20:54;;;;;;;0.85;0.60;;;;;;;;;;5834461;28;20497;-85
2023/08/06 14:23:45;;;;;;;1.05;0.73;;;;;;;;;;5841626;28;20113;-84
2023/08/06 14:26:37;;;;;;;1.02;0.80;;;;;;;;;;5842493;28;20037;-85
2023/08/06 14:29:27;;;;;;;3.03;0.98;;;;;;;;;;5824607;28;20064;-85
2023/08/06 14:32:19;;;;;;;1.25;1.05;;;;;;;;;;5841573;28;20042;-85
2023/08/06 14:35:10;;;;;;;3.03;1.27;;;;;;;;;;5842852;28;20053;-85
2023/08/06 14:38:01;;;;;;;3.88;1.05;;;;;;;;;;5843093;28;20093;-84
2023/08/06 14:40:54;;;;;;;1.33;0.80;;;;;;;;;;5826450;28;20053;-86
2023/08/06 14:43:44;;;;;;;0.77;0.65;;;;;;;;;;5819635;28;20042;-84
2023/08/06 14:46:35;;;;;;;0.85;0.68;;;;;;;;;;5818071;28;20046;-85
2023/08/06 14:49:26;;;;;;;1.80;1.20;;;;;;;;;;5819900;28;20445;-84
2023/08/06 14:52:17;;;;;;;0.57;0.57;;;;;;;;;;5818320;28;20625;-84
2023/08/06 14:55:08;;;;;;;1.00;0.55;;;;;;;;;;5819505;28;20046;-85
2023/08/06 14:58:01;;;;;;;0.35;0.30;;;;;;;;;;5851200;28;20050;-84
2023/08/06 15:00:52;;;;;;;0.20;0.20;;;;;;;;;;5841508;28;20080;-83
2023/08/06 15:03:42;;;;;;;0.80;0.57;;;;;;;;;;5840967;28;20046;-83
2023/08/06 15:06:34;;;;;;;0.38;0.38;;;;;;;;;;5842213;28;20417;-84
2023/08/06 15:09:24;;;;;;;0.20;0.20;;;;;;;;;;5840887;28;20048;-85
2023/08/06 15:12:17;;;;;;;0.47;0.30;;;;;;;;;;5841007;28;20049;-84
2023/08/06 15:15:08;;;;;;;0.28;0.28;;;;;;;;;;5824759;28;20069;-84
2023/08/06 15:17:59;;;;;;;0.88;0.35;;;;;;;;;;5842582;28;20515;-82
2023/08/06 15:20:50;;;;;;;0.20;0.20;;;;;;;;;;5841268;28;20045;-83
2023/08/06 15:23:41;;;;;;;0.50;0.50;;;;;;;;;;5824621;28;20123;-83
2023/08/06 15:26:33;;;;;;;2.60;0.73;;;;;;;;;;5840581;28;20048;-83
2023/08/06 15:29:24;;;;;;;0.90;0.50;;;;;;;;;;5840561;28;20069;-84
2023/08/06 15:32:15;;;;;;;1.33;1.10;;;;;;;;;;5840462;28;20121;-83
2023/08/06 15:35:08;;;;;;;0.70;0.50;;;;;;;;;;5841197;28;20061;-82
2023/08/06 15:37:59;;;;;;;0.55;0.30;;;;;;;;;;5840554;28;20053;-82
2023/08/06 15:40:50;;;;;;;3.10;0.55;;;;;;;;;;5824179;28;20515;-82
2023/08/06 15:43:41;;;;;;;0.57;0.50;;;;;;;;;;5840741;28;20500;-83
2023/08/06 15:46:34;;;;;;;0.50;0.20;;;;;;;;;;5840061;28;20058;-83
2023/08/06 15:49:27;;;;;;;1.35;1.05;;;;;;;;;;5841470;28;20449;-84
2023/08/06 15:52:18;;;;;;;5.20;1.23;;;;;;;;;;5841388;28;20054;-83
2023/08/06 15:55:09;;;;;;;1.33;0.93;;;;;;;;;;5841346;28;20042;-83
2023/08/06 15:58:00;;;;;;;4.80;0.50;;;;;;;;;;5841763;28;20045;-83
2023/08/06 16:00:53;;;;;;;0.68;0.50;;;;;;;;;;5824160;28;20042;-86
2023/08/06 16:03:44;;;;;;;0.20;0.20;;;;;;;;;;5841470;28;20084;-83
2023/08/06 16:06:35;;;;;;;0.35;0.35;;;;;;;;;;5839892;28;20073;-82
2023/08/06 16:09:26;;;;;;;0.38;0.17;;;;;;;;;;5840128;28;21366;-84
2023/08/06 16:12:19;;;;;;;0.25;0.10;;;;;;;;;;5823789;28;20050;-83
2023/08/06 16:15:10;;;;;;;0.20;0.20;;;;;;;;;;5841443;28;20060;-84
2023/08/06 16:18:01;;;;;;;0.10;0.10;;;;;;;;;;5840624;28;20068;-84
2023/08/06 16:20:53;;;;;;;0.20;0.20;;;;;;;;;;5841616;28;20070;-83
2023/08/06 16:23:44;;;;;;;0.30;0.30;;;;;;;;;;5841439;28;20417;-83
2023/08/06 16:26:37;;;;;;;0.20;0.20;;;;;;;;;;5840143;28;20139;-83
2023/08/06 16:29:29;;;;;;;0.15;0.15;;;;;;;;;;5841360;28;20038;-83
2023/08/06 16:32:20;;;;;;;0.10;0.10;;;;;;;;;;5841122;28;20046;-84
2023/08/06 16:35:11;;;;;;;0.10;0.10;;;;;;;;;;5841170;28;20378;-82
2023/08/06 16:38:02;;;;;;;0.38;0.20;;;;;;;;;;5841322;28;20527;-84
2023/08/06 16:40:54;;;;;;;0.10;0.10;;;;;;;;;;5841646;28;20064;-84
2023/08/06 16:43:45;;;;;;;0.15;0.15;;;;;;;;;;5832010;28;20046;-84
2023/08/06 16:46:36;;;;;;;0.52;0.43;;;;;;;;;;5840703;28;20053;-84
2023/08/06 16:49:27;;;;;;;0.20;0.20;;;;;;;;;;5839947;28;20500;-84
2023/08/06 16:52:18;;;;;;;0.10;0.10;;;;;;;;;;5844109;28;20058;-84
2023/08/06 16:55:09;;;;;;;0.22;0.22;;;;;;;;;;5843824;28;20046;-83
2023/08/06 16:58:00;;;;;;;0.10;0.10;;;;;;;;;;5845620;28;20496;-83
2023/08/06 17:00:51;;;;;;;0.25;0.25;;;;;;;;;;5845096;28;20049;-83
2023/08/06 17:03:42;;;;;;;0.20;0.10;;;;;;;;;;5845219;28;20100;-84
2023/08/06 17:06:33;;;;;;;0.10;0.10;;;;;;;;;;5843664;28;20104;-83
2023/08/06 17:09:24;;;;;;;0.20;0.20;;;;;;;;;;5844952;28;20389;-84
2023/08/06 17:12:19;;;;;;;0.10;0.10;;;;;;;;;;5844913;28;20050;-84